Terminal Aerodrome Forecast
Issued by NWS Cleveland, OH

Home | Current Version | Previous Version | Text Only | Print | Product List | Glossary Off
Versions: 1 2 3 4 5 6 7 8 9 10 11 12 13 14 15 16 17 18 19 20 21 22 23 24 25 26 27 28 29 30

000
FTUS41 KCLE 260934 AAE
TAFCLE
TAF AMD
KCLE 260934Z 2610/2712 21010KT P6SM BKN090
     FM261400 31012KT 6SM BR VCSH BKN015
     FM261900 01015KT 6SM BR OVC012
     FM270200 03010KT P6SM BKN020=

USA.gov is the U.S. government's official web portal to all federal, state and local government web resources and services.